sensor_id;sensor_type;location;lat;lon;timestamp;temperature;humidity
17080;DHT22;8655;57.106;-2.088;2023-09-07T00:01:08;22.70;79.30
17080;DHT22;8655;57.106;-2.088;2023-09-07T00:03:34;22.70;79.20
17080;DHT22;8655;57.106;-2.088;2023-09-07T00:05:59;22.70;79.20
17080;DHT22;8655;57.106;-2.088;2023-09-07T00:08:25;22.70;79.20
17080;DHT22;8655;57.106;-2.088;2023-09-07T00:10:51;22.70;79.20
17080;DHT22;8655;57.106;-2.088;2023-09-07T00:13:17;22.70;79.20
17080;DHT22;8655;57.106;-2.088;2023-09-07T00:15:43;22.70;79.30
17080;DHT22;8655;57.106;-2.088;2023-09-07T00:18:09;22.70;79.20
17080;DHT22;8655;57.106;-2.088;2023-09-07T00:20:35;22.70;79.30
17080;DHT22;8655;57.106;-2.088;2023-09-07T00:23:01;22.70;79.30
17080;DHT22;8655;57.106;-2.088;2023-09-07T00:25:27;22.70;79.30
17080;DHT22;8655;57.106;-2.088;2023-09-07T00:27:53;22.70;79.30
17080;DHT22;8655;57.106;-2.088;2023-09-07T00:30:19;22.70;79.20
17080;DHT22;8655;57.106;-2.088;2023-09-07T00:32:45;22.70;79.30
17080;DHT22;8655;57.106;-2.088;2023-09-07T00:35:10;22.70;79.30
17080;DHT22;8655;57.106;-2.088;2023-09-07T00:37:37;22.60;79.10
17080;DHT22;8655;57.106;-2.088;2023-09-07T00:40:03;22.60;79.80
17080;DHT22;8655;57.106;-2.088;2023-09-07T00:42:29;22.60;79.10
17080;DHT22;8655;57.106;-2.088;2023-09-07T00:44:55;22.60;79.20
17080;DHT22;8655;57.106;-2.088;2023-09-07T00:47:21;22.60;79.30
17080;DHT22;8655;57.106;-2.088;2023-09-07T00:49:48;22.60;79.10
17080;DHT22;8655;57.106;-2.088;2023-09-07T00:52:14;22.60;79.10
17080;DHT22;8655;57.106;-2.088;2023-09-07T00:54:40;22.60;79.10
17080;DHT22;8655;57.106;-2.088;2023-09-07T00:57:07;22.60;79.10
17080;DHT22;8655;57.106;-2.088;2023-09-07T00:59:33;22.60;79.10
17080;DHT22;8655;57.106;-2.088;2023-09-07T01:01:59;22.60;79.20
17080;DHT22;8655;57.106;-2.088;2023-09-07T01:04:25;22.60;79.10
17080;DHT22;8655;57.106;-2.088;2023-09-07T01:06:56;22.60;79.10
17080;DHT22;8655;57.106;-2.088;2023-09-07T01:09:24;22.60;79.10
17080;DHT22;8655;57.106;-2.088;2023-09-07T01:11:52;22.60;79.20
17080;DHT22;8655;57.106;-2.088;2023-09-07T01:14:18;22.60;79.10
17080;DHT22;8655;57.106;-2.088;2023-09-07T01:16:44;22.60;79.10
17080;DHT22;8655;57.106;-2.088;2023-09-07T01:19:11;22.60;79.20
17080;DHT22;8655;57.106;-2.088;2023-09-07T01:21:38;22.60;79.20
17080;DHT22;8655;57.106;-2.088;2023-09-07T01:24:08;22.60;79.20
17080;DHT22;8655;57.106;-2.088;2023-09-07T01:26:38;22.60;79.20
17080;DHT22;8655;57.106;-2.088;2023-09-07T01:29:05;22.60;79.10
17080;DHT22;8655;57.106;-2.088;2023-09-07T01:31:37;22.60;79.20
17080;DHT22;8655;57.106;-2.088;2023-09-07T01:34:04;22.60;79.10
17080;DHT22;8655;57.106;-2.088;2023-09-07T01:36:30;22.60;79.10
17080;DHT22;8655;57.106;-2.088;2023-09-07T01:38:56;22.60;79.10
17080;DHT22;8655;57.106;-2.088;2023-09-07T01:41:21;22.60;79.10
17080;DHT22;8655;57.106;-2.088;2023-09-07T01:43:47;22.60;79.10
17080;DHT22;8655;57.106;-2.088;2023-09-07T01:46:13;22.60;79.10
17080;DHT22;8655;57.106;-2.088;2023-09-07T01:48:39;22.60;79.10
17080;DHT22;8655;57.106;-2.088;2023-09-07T01:51:04;22.60;79.10
17080;DHT22;8655;57.106;-2.088;2023-09-07T01:53:30;22.50;79.00
17080;DHT22;8655;57.106;-2.088;2023-09-07T01:55:56;22.60;79.10
17080;DHT22;8655;57.106;-2.088;2023-09-07T01:58:22;22.60;79.10
17080;DHT22;8655;57.106;-2.088;2023-09-07T02:00:49;22.60;79.10
17080;DHT22;8655;57.106;-2.088;2023-09-07T02:03:15;22.50;79.00
17080;DHT22;8655;57.106;-2.088;2023-09-07T02:05:41;22.50;79.00
17080;DHT22;8655;57.106;-2.088;2023-09-07T02:08:06;22.50;79.00
17080;DHT22;8655;57.106;-2.088;2023-09-07T02:10:33;22.50;79.00
17080;DHT22;8655;57.106;-2.088;2023-09-07T02:12:59;22.50;79.00
17080;DHT22;8655;57.106;-2.088;2023-09-07T02:15:25;22.50;79.00
17080;DHT22;8655;57.106;-2.088;2023-09-07T02:17:50;22.50;79.00
17080;DHT22;8655;57.106;-2.088;2023-09-07T02:20:18;22.50;79.00
17080;DHT22;8655;57.106;-2.088;2023-09-07T02:22:45;22.50;79.00
17080;DHT22;8655;57.106;-2.088;2023-09-07T02:25:11;22.50;79.00
17080;DHT22;8655;57.106;-2.088;2023-09-07T02:27:37;22.50;79.10
17080;DHT22;8655;57.106;-2.088;2023-09-07T02:30:04;22.50;79.00
17080;DHT22;8655;57.106;-2.088;2023-09-07T02:32:31;22.50;79.00
17080;DHT22;8655;57.106;-2.088;2023-09-07T02:34:56;22.50;79.00
17080;DHT22;8655;57.106;-2.088;2023-09-07T02:37:23;22.50;79.00
17080;DHT22;8655;57.106;-2.088;2023-09-07T02:39:48;22.50;79.00
17080;DHT22;8655;57.106;-2.088;2023-09-07T02:42:14;22.50;79.00
17080;DHT22;8655;57.106;-2.088;2023-09-07T02:44:40;22.50;79.00
17080;DHT22;8655;57.106;-2.088;2023-09-07T02:47:05;22.50;79.00
17080;DHT22;8655;57.106;-2.088;2023-09-07T02:49:31;22.50;79.00
17080;DHT22;8655;57.106;-2.088;2023-09-07T02:51:57;22.50;79.00
17080;DHT22;8655;57.106;-2.088;2023-09-07T02:54:23;22.50;79.00
17080;DHT22;8655;57.106;-2.088;2023-09-07T02:56:49;22.40;78.90
17080;DHT22;8655;57.106;-2.088;2023-09-07T02:59:14;22.50;79.00
17080;DHT22;8655;57.106;-2.088;2023-09-07T03:01:40;22.50;79.00
17080;DHT22;8655;57.106;-2.088;2023-09-07T03:04:06;22.50;79.00
17080;DHT22;8655;57.106;-2.088;2023-09-07T03:06:33;22.50;79.00
17080;DHT22;8655;57.106;-2.088;2023-09-07T03:08:58;22.50;79.00
17080;DHT22;8655;57.106;-2.088;2023-09-07T03:11:25;22.50;79.00
17080;DHT22;8655;57.106;-2.088;2023-09-07T03:13:50;22.40;78.90
17080;DHT22;8655;57.106;-2.088;2023-09-07T03:16:16;22.40;78.90
17080;DHT22;8655;57.106;-2.088;2023-09-07T03:18:42;22.40;78.90
17080;DHT22;8655;57.106;-2.088;2023-09-07T03:21:07;22.40;78.90
17080;DHT22;8655;57.106;-2.088;2023-09-07T03:23:34;22.40;78.90
17080;DHT22;8655;57.106;-2.088;2023-09-07T03:26:00;22.40;78.90
17080;DHT22;8655;57.106;-2.088;2023-09-07T03:28:25;22.40;78.90
17080;DHT22;8655;57.106;-2.088;2023-09-07T03:30:53;22.40;78.90
17080;DHT22;8655;57.106;-2.088;2023-09-07T03:33:19;22.40;78.90
17080;DHT22;8655;57.106;-2.088;2023-09-07T03:35:45;22.40;78.90
17080;DHT22;8655;57.106;-2.088;2023-09-07T03:38:10;22.40;78.90
17080;DHT22;8655;57.106;-2.088;2023-09-07T03:40:36;22.40;78.90
17080;DHT22;8655;57.106;-2.088;2023-09-07T03:43:02;22.40;78.90
17080;DHT22;8655;57.106;-2.088;2023-09-07T03:45:28;22.40;78.90
17080;DHT22;8655;57.106;-2.088;2023-09-07T03:47:53;22.40;78.90
17080;DHT22;8655;57.106;-2.088;2023-09-07T03:50:19;22.40;78.90
17080;DHT22;8655;57.106;-2.088;2023-09-07T03:52:45;22.40;78.90
17080;DHT22;8655;57.106;-2.088;2023-09-07T03:55:11;22.40;78.90
17080;DHT22;8655;57.106;-2.088;2023-09-07T03:57:37;22.40;79.00
17080;DHT22;8655;57.106;-2.088;2023-09-07T04:00:03;22.40;78.90
17080;DHT22;8655;57.106;-2.088;2023-09-07T04:02:33;22.40;78.90
17080;DHT22;8655;57.106;-2.088;2023-09-07T04:04:59;22.40;78.90
17080;DHT22;8655;57.106;-2.088;2023-09-07T04:07:27;22.40;78.90
17080;DHT22;8655;57.106;-2.088;2023-09-07T04:09:53;22.40;78.90
17080;DHT22;8655;57.106;-2.088;2023-09-07T04:12:18;22.40;78.90
17080;DHT22;8655;57.106;-2.088;2023-09-07T04:14:44;22.40;78.90
17080;DHT22;8655;57.106;-2.088;2023-09-07T04:17:10;22.40;78.90
17080;DHT22;8655;57.106;-2.088;2023-09-07T04:19:36;22.30;78.80
17080;DHT22;8655;57.106;-2.088;2023-09-07T04:22:01;22.30;78.80
17080;DHT22;8655;57.106;-2.088;2023-09-07T04:24:27;22.30;78.80
17080;DHT22;8655;57.106;-2.088;2023-09-07T04:26:53;22.30;78.80
17080;DHT22;8655;57.106;-2.088;2023-09-07T04:29:18;22.30;78.80
17080;DHT22;8655;57.106;-2.088;2023-09-07T04:31:44;22.30;78.80
17080;DHT22;8655;57.106;-2.088;2023-09-07T04:34:10;22.30;78.80
17080;DHT22;8655;57.106;-2.088;2023-09-07T04:36:35;22.30;78.80
17080;DHT22;8655;57.106;-2.088;2023-09-07T04:39:01;22.30;78.80
17080;DHT22;8655;57.106;-2.088;2023-09-07T04:41:29;22.30;78.80
17080;DHT22;8655;57.106;-2.088;2023-09-07T04:43:54;22.30;78.80
17080;DHT22;8655;57.106;-2.088;2023-09-07T04:46:22;22.30;78.80
17080;DHT22;8655;57.106;-2.088;2023-09-07T04:48:50;22.30;78.80
17080;DHT22;8655;57.106;-2.088;2023-09-07T04:51:16;22.30;78.80
17080;DHT22;8655;57.106;-2.088;2023-09-07T04:53:42;22.30;78.80
17080;DHT22;8655;57.106;-2.088;2023-09-07T04:56:08;22.30;78.80
17080;DHT22;8655;57.106;-2.088;2023-09-07T04:58:34;22.30;78.80
17080;DHT22;8655;57.106;-2.088;2023-09-07T05:01:07;22.30;78.80
17080;DHT22;8655;57.106;-2.088;2023-09-07T05:03:34;22.30;78.80
17080;DHT22;8655;57.106;-2.088;2023-09-07T05:06:00;22.30;78.80
17080;DHT22;8655;57.106;-2.088;2023-09-07T05:08:26;22.20;78.70
17080;DHT22;8655;57.106;-2.088;2023-09-07T05:11:00;22.30;78.90
17080;DHT22;8655;57.106;-2.088;2023-09-07T05:13:27;22.30;78.90
17080;DHT22;8655;57.106;-2.088;2023-09-07T05:15:54;22.30;78.80
17080;DHT22;8655;57.106;-2.088;2023-09-07T05:18:21;22.30;78.90
17080;DHT22;8655;57.106;-2.088;2023-09-07T05:20:46;22.20;78.80
17080;DHT22;8655;57.106;-2.088;2023-09-07T05:23:17;22.20;78.70
17080;DHT22;8655;57.106;-2.088;2023-09-07T05:25:54;22.20;78.80
17080;DHT22;8655;57.106;-2.088;2023-09-07T05:28:22;22.20;78.80
17080;DHT22;8655;57.106;-2.088;2023-09-07T05:30:48;22.20;78.80
17080;DHT22;8655;57.106;-2.088;2023-09-07T05:33:15;22.20;78.80
17080;DHT22;8655;57.106;-2.088;2023-09-07T05:35:42;22.20;78.80
17080;DHT22;8655;57.106;-2.088;2023-09-07T05:38:08;22.20;78.80
17080;DHT22;8655;57.106;-2.088;2023-09-07T05:40:39;22.20;78.80
17080;DHT22;8655;57.106;-2.088;2023-09-07T05:43:05;22.20;78.80
17080;DHT22;8655;57.106;-2.088;2023-09-07T05:45:34;22.20;78.80
17080;DHT22;8655;57.106;-2.088;2023-09-07T05:48:00;22.20;78.80
17080;DHT22;8655;57.106;-2.088;2023-09-07T05:50:26;22.20;78.80
17080;DHT22;8655;57.106;-2.088;2023-09-07T05:52:52;22.20;78.80
17080;DHT22;8655;57.106;-2.088;2023-09-07T05:55:17;22.20;78.80
17080;DHT22;8655;57.106;-2.088;2023-09-07T05:57:43;22.20;78.80
17080;DHT22;8655;57.106;-2.088;2023-09-07T06:00:09;22.20;78.80
17080;DHT22;8655;57.106;-2.088;2023-09-07T06:02:35;22.20;78.80
17080;DHT22;8655;57.106;-2.088;2023-09-07T06:05:01;22.20;78.80
17080;DHT22;8655;57.106;-2.088;2023-09-07T06:07:27;22.20;78.80
17080;DHT22;8655;57.106;-2.088;2023-09-07T06:09:53;22.20;78.80
17080;DHT22;8655;57.106;-2.088;2023-09-07T06:12:18;22.20;78.80
17080;DHT22;8655;57.106;-2.088;2023-09-07T06:14:45;22.20;78.80
17080;DHT22;8655;57.106;-2.088;2023-09-07T06:17:12;22.20;78.80
17080;DHT22;8655;57.106;-2.088;2023-09-07T06:19:37;22.20;78.80
17080;DHT22;8655;57.106;-2.088;2023-09-07T06:22:04;22.20;78.80
17080;DHT22;8655;57.106;-2.088;2023-09-07T06:24:29;22.20;78.80
17080;DHT22;8655;57.106;-2.088;2023-09-07T06:26:55;22.10;78.70
17080;DHT22;8655;57.106;-2.088;2023-09-07T06:29:20;22.20;78.80
17080;DHT22;8655;57.106;-2.088;2023-09-07T06:31:46;22.20;78.80
17080;DHT22;8655;57.106;-2.088;2023-09-07T06:34:15;22.20;78.80
17080;DHT22;8655;57.106;-2.088;2023-09-07T06:36:41;22.10;78.70
17080;DHT22;8655;57.106;-2.088;2023-09-07T06:39:07;22.20;78.80
17080;DHT22;8655;57.106;-2.088;2023-09-07T06:41:33;22.10;78.70
17080;DHT22;8655;57.106;-2.088;2023-09-07T06:43:58;22.10;78.70
17080;DHT22;8655;57.106;-2.088;2023-09-07T06:46:24;22.10;78.70
17080;DHT22;8655;57.106;-2.088;2023-09-07T06:48:50;22.10;78.70
17080;DHT22;8655;57.106;-2.088;2023-09-07T06:51:15;22.10;78.70
17080;DHT22;8655;57.106;-2.088;2023-09-07T06:53:41;22.10;78.70
17080;DHT22;8655;57.106;-2.088;2023-09-07T06:56:07;22.10;78.70
17080;DHT22;8655;57.106;-2.088;2023-09-07T06:58:32;22.10;78.70
17080;DHT22;8655;57.106;-2.088;2023-09-07T07:01:00;22.10;78.70
17080;DHT22;8655;57.106;-2.088;2023-09-07T07:03:28;22.10;78.70
17080;DHT22;8655;57.106;-2.088;2023-09-07T07:05:55;22.10;78.70
17080;DHT22;8655;57.106;-2.088;2023-09-07T07:08:20;22.10;78.70
17080;DHT22;8655;57.106;-2.088;2023-09-07T07:10:46;22.10;78.70
17080;DHT22;8655;57.106;-2.088;2023-09-07T07:13:12;22.10;78.70
17080;DHT22;8655;57.106;-2.088;2023-09-07T07:15:37;22.10;78.70
17080;DHT22;8655;57.106;-2.088;2023-09-07T07:18:03;22.10;78.70
17080;DHT22;8655;57.106;-2.088;2023-09-07T07:20:35;22.10;78.70
17080;DHT22;8655;57.106;-2.088;2023-09-07T07:23:00;22.10;78.70
17080;DHT22;8655;57.106;-2.088;2023-09-07T07:25:26;22.10;78.70
17080;DHT22;8655;57.106;-2.088;2023-09-07T07:27:52;22.10;78.70
17080;DHT22;8655;57.106;-2.088;2023-09-07T07:30:17;22.10;78.70
17080;DHT22;8655;57.106;-2.088;2023-09-07T07:32:43;22.10;78.90
17080;DHT22;8655;57.106;-2.088;2023-09-07T07:35:09;22.10;78.70
17080;DHT22;8655;57.106;-2.088;2023-09-07T07:37:34;22.10;78.70
17080;DHT22;8655;57.106;-2.088;2023-09-07T07:40:00;22.10;78.70
17080;DHT22;8655;57.106;-2.088;2023-09-07T07:42:25;22.10;78.70
17080;DHT22;8655;57.106;-2.088;2023-09-07T07:44:51;22.10;78.70
17080;DHT22;8655;57.106;-2.088;2023-09-07T07:47:17;22.10;78.80
17080;DHT22;8655;57.106;-2.088;2023-09-07T07:49:42;22.10;78.70
17080;DHT22;8655;57.106;-2.088;2023-09-07T07:52:08;22.10;78.70
17080;DHT22;8655;57.106;-2.088;2023-09-07T07:54:34;22.10;78.70
17080;DHT22;8655;57.106;-2.088;2023-09-07T07:56:59;22.10;78.80
17080;DHT22;8655;57.106;-2.088;2023-09-07T07:59:25;22.10;78.80
17080;DHT22;8655;57.106;-2.088;2023-09-07T08:01:51;22.10;78.80
17080;DHT22;8655;57.106;-2.088;2023-09-07T08:04:16;22.10;78.80
17080;DHT22;8655;57.106;-2.088;2023-09-07T08:06:42;22.10;78.80
17080;DHT22;8655;57.106;-2.088;2023-09-07T08:09:08;22.10;78.80
17080;DHT22;8655;57.106;-2.088;2023-09-07T08:11:33;22.00;78.70
17080;DHT22;8655;57.106;-2.088;2023-09-07T08:13:59;22.00;78.70
17080;DHT22;8655;57.106;-2.088;2023-09-07T08:16:25;22.10;78.80
17080;DHT22;8655;57.106;-2.088;2023-09-07T08:18:51;22.10;78.80
17080;DHT22;8655;57.106;-2.088;2023-09-07T08:21:16;22.10;78.80
17080;DHT22;8655;57.106;-2.088;2023-09-07T08:23:43;22.10;78.80
17080;DHT22;8655;57.106;-2.088;2023-09-07T08:26:09;22.10;78.80
17080;DHT22;8655;57.106;-2.088;2023-09-07T08:28:38;22.10;78.90
17080;DHT22;8655;57.106;-2.088;2023-09-07T08:31:03;22.10;78.90
17080;DHT22;8655;57.106;-2.088;2023-09-07T08:33:31;22.10;78.80
17080;DHT22;8655;57.106;-2.088;2023-09-07T08:35:58;22.10;78.90
17080;DHT22;8655;57.106;-2.088;2023-09-07T08:38:26;22.10;78.90
17080;DHT22;8655;57.106;-2.088;2023-09-07T08:41:02;22.00;78.80
17080;DHT22;8655;57.106;-2.088;2023-09-07T08:43:44;22.10;78.90
17080;DHT22;8655;57.106;-2.088;2023-09-07T08:46:17;22.00;78.80
17080;DHT22;8655;57.106;-2.088;2023-09-07T08:48:43;22.10;78.90
17080;DHT22;8655;57.106;-2.088;2023-09-07T08:51:09;22.10;78.90
17080;DHT22;8655;57.106;-2.088;2023-09-07T08:53:37;22.00;78.80
17080;DHT22;8655;57.106;-2.088;2023-09-07T08:56:06;22.10;78.90
17080;DHT22;8655;57.106;-2.088;2023-09-07T08:58:36;22.10;78.90
17080;DHT22;8655;57.106;-2.088;2023-09-07T09:01:01;22.10;78.90
17080;DHT22;8655;57.106;-2.088;2023-09-07T09:03:27;22.10;78.90
17080;DHT22;8655;57.106;-2.088;2023-09-07T09:05:55;22.00;78.90
17080;DHT22;8655;57.106;-2.088;2023-09-07T09:08:21;22.00;78.90
17080;DHT22;8655;57.106;-2.088;2023-09-07T09:10:59;22.10;79.00
17080;DHT22;8655;57.106;-2.088;2023-09-07T09:13:29;22.00;78.90
17080;DHT22;8655;57.106;-2.088;2023-09-07T09:15:55;22.10;79.00
17080;DHT22;8655;57.106;-2.088;2023-09-07T09:18:21;22.10;79.00
17080;DHT22;8655;57.106;-2.088;2023-09-07T09:20:48;22.00;78.90
17080;DHT22;8655;57.106;-2.088;2023-09-07T09:23:13;22.10;79.00
17080;DHT22;8655;57.106;-2.088;2023-09-07T09:25:41;22.10;79.00
17080;DHT22;8655;57.106;-2.088;2023-09-07T09:28:09;22.10;79.00
17080;DHT22;8655;57.106;-2.088;2023-09-07T09:30:36;22.10;79.00
17080;DHT22;8655;57.106;-2.088;2023-09-07T09:33:02;22.10;79.00
17080;DHT22;8655;57.106;-2.088;2023-09-07T09:35:31;22.10;79.00
17080;DHT22;8655;57.106;-2.088;2023-09-07T09:38:00;22.10;79.00
17080;DHT22;8655;57.106;-2.088;2023-09-07T09:40:30;22.10;79.10
17080;DHT22;8655;57.106;-2.088;2023-09-07T09:42:57;22.10;79.10
17080;DHT22;8655;57.106;-2.088;2023-09-07T09:45:26;22.10;79.10
17080;DHT22;8655;57.106;-2.088;2023-09-07T09:47:54;22.10;79.10
17080;DHT22;8655;57.106;-2.088;2023-09-07T09:50:22;22.10;79.10
17080;DHT22;8655;57.106;-2.088;2023-09-07T09:52:48;22.10;79.20
17080;DHT22;8655;57.106;-2.088;2023-09-07T09:55:15;22.10;79.10
17080;DHT22;8655;57.106;-2.088;2023-09-07T09:57:41;22.10;79.10
17080;DHT22;8655;57.106;-2.088;2023-09-07T10:00:07;22.10;79.20
17080;DHT22;8655;57.106;-2.088;2023-09-07T10:03:02;22.10;79.20
17080;DHT22;8655;57.106;-2.088;2023-09-07T10:05:30;22.10;79.20
17080;DHT22;8655;57.106;-2.088;2023-09-07T10:08:01;22.10;79.20
17080;DHT22;8655;57.106;-2.088;2023-09-07T10:10:35;22.10;79.20
17080;DHT22;8655;57.106;-2.088;2023-09-07T10:13:03;22.10;79.30
17080;DHT22;8655;57.106;-2.088;2023-09-07T10:15:29;22.10;79.20
17080;DHT22;8655;57.106;-2.088;2023-09-07T10:18:14;22.10;79.30
17080;DHT22;8655;57.106;-2.088;2023-09-07T10:20:57;22.10;79.30
17080;DHT22;8655;57.106;-2.088;2023-09-07T10:23:36;22.10;79.30
17080;DHT22;8655;57.106;-2.088;2023-09-07T10:26:03;22.10;79.30
17080;DHT22;8655;57.106;-2.088;2023-09-07T10:28:31;22.10;79.30
17080;DHT22;8655;57.106;-2.088;2023-09-07T10:31:02;22.10;79.30
17080;DHT22;8655;57.106;-2.088;2023-09-07T10:33:35;22.10;79.40
17080;DHT22;8655;57.106;-2.088;2023-09-07T10:36:02;22.10;79.40
17080;DHT22;8655;57.106;-2.088;2023-09-07T10:38:28;22.10;79.40
17080;DHT22;8655;57.106;-2.088;2023-09-07T10:40:55;22.10;79.40
17080;DHT22;8655;57.106;-2.088;2023-09-07T10:43:26;22.10;79.50
17080;DHT22;8655;57.106;-2.088;2023-09-07T10:45:53;22.10;79.50
17080;DHT22;8655;57.106;-2.088;2023-09-07T10:48:19;22.10;79.50
17080;DHT22;8655;57.106;-2.088;2023-09-07T10:50:45;22.10;79.50
17080;DHT22;8655;57.106;-2.088;2023-09-07T10:53:12;22.10;79.60
17080;DHT22;8655;57.106;-2.088;2023-09-07T10:55:39;22.10;79.60
17080;DHT22;8655;57.106;-2.088;2023-09-07T10:58:06;22.20;79.70
17080;DHT22;8655;57.106;-2.088;2023-09-07T11:00:32;22.20;79.70
17080;DHT22;8655;57.106;-2.088;2023-09-07T11:02:57;22.20;79.70
17080;DHT22;8655;57.106;-2.088;2023-09-07T11:05:24;22.20;79.70
17080;DHT22;8655;57.106;-2.088;2023-09-07T11:07:50;22.20;79.70
17080;DHT22;8655;57.106;-2.088;2023-09-07T11:10:15;22.20;79.70
17080;DHT22;8655;57.106;-2.088;2023-09-07T11:12:41;22.20;79.80
17080;DHT22;8655;57.106;-2.088;2023-09-07T11:15:10;22.20;79.80
17080;DHT22;8655;57.106;-2.088;2023-09-07T11:17:39;22.20;79.80
17080;DHT22;8655;57.106;-2.088;2023-09-07T11:20:06;22.20;79.80
17080;DHT22;8655;57.106;-2.088;2023-09-07T11:22:33;22.20;79.80
17080;DHT22;8655;57.106;-2.088;2023-09-07T11:25:02;22.20;79.80
17080;DHT22;8655;57.106;-2.088;2023-09-07T11:27:29;22.20;79.90
17080;DHT22;8655;57.106;-2.088;2023-09-07T11:29:56;22.20;79.90
17080;DHT22;8655;57.106;-2.088;2023-09-07T11:32:23;22.20;79.90
17080;DHT22;8655;57.106;-2.088;2023-09-07T11:34:51;22.20;79.90
17080;DHT22;8655;57.106;-2.088;2023-09-07T11:37:18;22.20;80.00
17080;DHT22;8655;57.106;-2.088;2023-09-07T11:39:44;22.20;80.00
17080;DHT22;8655;57.106;-2.088;2023-09-07T11:42:10;22.20;80.00
17080;DHT22;8655;57.106;-2.088;2023-09-07T11:44:35;22.30;80.10
17080;DHT22;8655;57.106;-2.088;2023-09-07T11:47:01;22.30;80.10
17080;DHT22;8655;57.106;-2.088;2023-09-07T11:49:28;22.30;80.20
17080;DHT22;8655;57.106;-2.088;2023-09-07T11:51:55;22.30;80.20
17080;DHT22;8655;57.106;-2.088;2023-09-07T11:54:20;22.30;80.20
17080;DHT22;8655;57.106;-2.088;2023-09-07T11:56:46;22.30;80.20
17080;DHT22;8655;57.106;-2.088;2023-09-07T11:59:12;22.30;80.20
17080;DHT22;8655;57.106;-2.088;2023-09-07T12:01:38;22.30;80.20
17080;DHT22;8655;57.106;-2.088;2023-09-07T12:04:05;22.30;80.30
17080;DHT22;8655;57.106;-2.088;2023-09-07T12:06:32;22.30;80.30
17080;DHT22;8655;57.106;-2.088;2023-09-07T12:08:59;22.30;80.30
17080;DHT22;8655;57.106;-2.088;2023-09-07T12:11:25;22.30;80.60
17080;DHT22;8655;57.106;-2.088;2023-09-07T12:13:50;22.30;80.30
17080;DHT22;8655;57.106;-2.088;2023-09-07T12:16:16;22.30;80.30
17080;DHT22;8655;57.106;-2.088;2023-09-07T12:18:42;22.30;80.40
17080;DHT22;8655;57.106;-2.088;2023-09-07T12:21:07;22.30;80.40
17080;DHT22;8655;57.106;-2.088;2023-09-07T12:23:33;22.40;80.50
17080;DHT22;8655;57.106;-2.088;2023-09-07T12:26:01;22.40;80.50
17080;DHT22;8655;57.106;-2.088;2023-09-07T12:28:26;22.40;80.50
17080;DHT22;8655;57.106;-2.088;2023-09-07T12:30:52;22.40;80.50
17080;DHT22;8655;57.106;-2.088;2023-09-07T12:33:18;22.40;80.60
17080;DHT22;8655;57.106;-2.088;2023-09-07T12:35:43;22.40;80.60
17080;DHT22;8655;57.106;-2.088;2023-09-07T12:38:09;22.40;80.60
17080;DHT22;8655;57.106;-2.088;2023-09-07T12:40:36;22.40;80.60
17080;DHT22;8655;57.106;-2.088;2023-09-07T12:43:02;22.40;80.60
17080;DHT22;8655;57.106;-2.088;2023-09-07T12:45:28;22.40;80.60
17080;DHT22;8655;57.106;-2.088;2023-09-07T12:47:53;22.40;80.70
17080;DHT22;8655;57.106;-2.088;2023-09-07T12:50:19;22.40;81.30
17080;DHT22;8655;57.106;-2.088;2023-09-07T12:52:44;22.40;80.70
17080;DHT22;8655;57.106;-2.088;2023-09-07T12:55:10;22.40;80.70
17080;DHT22;8655;57.106;-2.088;2023-09-07T12:57:36;22.50;80.80
17080;DHT22;8655;57.106;-2.088;2023-09-07T13:00:06;22.40;80.80
17080;DHT22;8655;57.106;-2.088;2023-09-07T13:02:31;22.50;80.90
17080;DHT22;8655;57.106;-2.088;2023-09-07T13:04:57;22.50;80.90
17080;DHT22;8655;57.106;-2.088;2023-09-07T13:07:23;22.50;81.00
17080;DHT22;8655;57.106;-2.088;2023-09-07T13:09:48;22.50;81.00
17080;DHT22;8655;57.106;-2.088;2023-09-07T13:12:15;22.50;81.00
17080;DHT22;8655;57.106;-2.088;2023-09-07T13:14:41;22.50;81.10
17080;DHT22;8655;57.106;-2.088;2023-09-07T13:17:12;22.50;81.10
17080;DHT22;8655;57.106;-2.088;2023-09-07T13:19:39;22.50;81.10
17080;DHT22;8655;57.106;-2.088;2023-09-07T13:22:05;22.50;81.10
17080;DHT22;8655;57.106;-2.088;2023-09-07T13:24:33;22.50;81.10
17080;DHT22;8655;57.106;-2.088;2023-09-07T13:26:58;22.60;81.90
17080;DHT22;8655;57.106;-2.088;2023-09-07T13:29:24;22.60;81.30
17080;DHT22;8655;57.106;-2.088;2023-09-07T13:31:51;22.60;81.30
17080;DHT22;8655;57.106;-2.088;2023-09-07T13:34:20;22.60;81.30
17080;DHT22;8655;57.106;-2.088;2023-09-07T13:36:46;22.60;81.30
17080;DHT22;8655;57.106;-2.088;2023-09-07T13:39:12;22.60;81.30
17080;DHT22;8655;57.106;-2.088;2023-09-07T13:41:37;22.60;81.40
17080;DHT22;8655;57.106;-2.088;2023-09-07T13:44:03;22.60;81.40
17080;DHT22;8655;57.106;-2.088;2023-09-07T13:46:29;22.60;81.40
17080;DHT22;8655;57.106;-2.088;2023-09-07T13:48:55;22.60;81.40
17080;DHT22;8655;57.106;-2.088;2023-09-07T13:51:20;22.60;81.40
17080;DHT22;8655;57.106;-2.088;2023-09-07T13:53:46;22.60;82.10
17080;DHT22;8655;57.106;-2.088;2023-09-07T13:56:12;22.60;81.50
17080;DHT22;8655;57.106;-2.088;2023-09-07T13:58:37;22.60;81.50
17080;DHT22;8655;57.106;-2.088;2023-09-07T14:01:03;22.70;81.60
17080;DHT22;8655;57.106;-2.088;2023-09-07T14:03:29;22.70;81.60
17080;DHT22;8655;57.106;-2.088;2023-09-07T14:05:55;22.70;81.60
17080;DHT22;8655;57.106;-2.088;2023-09-07T14:08:20;22.70;81.60
17080;DHT22;8655;57.106;-2.088;2023-09-07T14:10:49;22.70;81.70
17080;DHT22;8655;57.106;-2.088;2023-09-07T14:13:15;22.70;81.70
17080;DHT22;8655;57.106;-2.088;2023-09-07T14:15:40;22.70;81.70
17080;DHT22;8655;57.106;-2.088;2023-09-07T14:18:06;22.70;81.70
17080;DHT22;8655;57.106;-2.088;2023-09-07T14:20:33;22.70;81.70
17080;DHT22;8655;57.106;-2.088;2023-09-07T14:22:59;22.70;81.70
17080;DHT22;8655;57.106;-2.088;2023-09-07T14:25:29;22.70;81.70
17080;DHT22;8655;57.106;-2.088;2023-09-07T14:27:55;22.70;81.70
17080;DHT22;8655;57.106;-2.088;2023-09-07T14:30:21;22.70;81.70
17080;DHT22;8655;57.106;-2.088;2023-09-07T14:32:46;22.70;81.70
17080;DHT22;8655;57.106;-2.088;2023-09-07T14:35:17;22.70;81.80
17080;DHT22;8655;57.106;-2.088;2023-09-07T14:37:43;22.80;81.90
17080;DHT22;8655;57.106;-2.088;2023-09-07T14:40:08;22.80;81.90
17080;DHT22;8655;57.106;-2.088;2023-09-07T14:42:35;22.80;81.90
17080;DHT22;8655;57.106;-2.088;2023-09-07T14:45:02;22.80;81.90
17080;DHT22;8655;57.106;-2.088;2023-09-07T14:47:31;22.80;81.80
17080;DHT22;8655;57.106;-2.088;2023-09-07T14:49:56;22.80;81.90
17080;DHT22;8655;57.106;-2.088;2023-09-07T14:52:22;22.80;81.90
17080;DHT22;8655;57.106;-2.088;2023-09-07T14:54:50;22.80;81.90
17080;DHT22;8655;57.106;-2.088;2023-09-07T14:57:16;22.80;81.90
17080;DHT22;8655;57.106;-2.088;2023-09-07T14:59:42;22.80;81.90
17080;DHT22;8655;57.106;-2.088;2023-09-07T15:02:08;22.80;81.90
17080;DHT22;8655;57.106;-2.088;2023-09-07T15:04:34;22.80;81.90
17080;DHT22;8655;57.106;-2.088;2023-09-07T15:07:00;22.80;82.00
17080;DHT22;8655;57.106;-2.088;2023-09-07T15:09:26;22.80;82.00
17080;DHT22;8655;57.106;-2.088;2023-09-07T15:11:52;22.80;82.00
17080;DHT22;8655;57.106;-2.088;2023-09-07T15:14:18;22.80;82.00
17080;DHT22;8655;57.106;-2.088;2023-09-07T15:16:44;22.90;82.10
17080;DHT22;8655;57.106;-2.088;2023-09-07T15:19:10;22.80;82.00
17080;DHT22;8655;57.106;-2.088;2023-09-07T15:21:36;22.90;82.20
17080;DHT22;8655;57.106;-2.088;2023-09-07T15:24:01;22.90;82.20
17080;DHT22;8655;57.106;-2.088;2023-09-07T15:26:27;22.90;82.20